Startpagina
METAR-TAF:

METAR-TAF

Vliegvelden :

Büchel, Duitsland

breedte: 50-10N, lengte: 007-04E, hoogte: 478 m

Actueel weer

Dit bericht is 56 minuten geleden gemaakt, om 04:20 UTC
Wind 8 kt uit het zuidwesten
Temperatuur 0°C
Vochtigheid 93%
Druk 1008 hPa
Zicht: 4900 m

METAR: ETSB 200420Z AUTO 23008KT 4900 // ////// M00/M01 Q1008 ///

Tijdstip: 06:16 (05:16 UTC)

Verwachting

Dit bericht is 17 uur en het 53 minuten geleden gemaakt, om 11:23 UTC
Verwachting geldig van 19 om 11 UTC tot 19 om 18 UTC
Wind 10 kt uit het westzuidwesten
Zicht 10 km of meer
Verspreide wolken op 800 ft
Verspreide wolken op 2000 ft
Tijdelijke
van 19 om 11 UTC tot 19 om 18 UTC
Wind 10 kt uit het westen met uitschieters tot 20 kt
Zicht: 1130 m
Verspreide wolken op 500 ft
Gebroken wolken op 800 ft, Cumulonimbus.
sneeuwbuien

TAF: ETSB 191123Z 1911/1918 25010KT 9999 NSW SCT008 SCT020 TEMPO 1911/1918 26010G20KT 4000 SHSN SCT005 BKN008CB CANCEL 1130 BY ETGL

Waarnemingen en weersverwachtingen van meer dan 4000 vliegvelden (METAR en TAF).

De beschikbare stations zijn de gele en rode punten op de kaart.

Ga met uw muis naar het station om de naam te zien.

Klik dan om waarnemingen en weersverwachtingen te zien.

kaart wijzigen: klik op de groene knoppen met een zwart kruis om in te zoomen, op de groene knop met een streepje om uit te zoomen of op de groene pijlen voor aangrenzende kaarten.


METAR-TAF: